Time;durP1;ratioP1;P1;durP2;ratioP2;P2;SDS_P1;SDS_P2;PMS_P1;PMS_P2;Temp;Humidity;BMP_temperature;BMP_pressure;BME280_temperature;BME280_humidity;BME280_pressure;Samples;Min_cycle;Max_cycle;Signal;HPM_P1;HPM_P2
2024/01/29 00:01:43;;;;;;;1.20;1.20;;;;;;;4.83;nan;101212.31;5053312;28;20217;-67
2024/01/29 00:04:09;;;;;;;0.60;0.60;;;;;;;4.86;nan;101213.25;5053427;28;20200;-67
2024/01/29 00:06:36;;;;;;;1.60;0.70;;;;;;;4.89;nan;101198.06;5053594;28;20197;-66
2024/01/29 00:09:05;;;;;;;0.57;0.57;;;;;;;5.05;nan;101219.56;5053460;28;20197;-66
2024/01/29 00:11:33;;;;;;;0.60;0.60;;;;;;;5.05;nan;101212.81;5053905;28;20614;-66
2024/01/29 00:14:00;;;;;;;0.67;0.67;;;;;;;5.09;nan;101217.13;5053660;28;20251;-66
2024/01/29 00:16:27;;;;;;;0.90;0.90;;;;;;;5.14;nan;101230.78;5053408;28;20282;-66
2024/01/29 00:18:54;;;;;;;0.60;0.60;;;;;;;5.19;nan;101231.75;5053889;28;20196;-66
2024/01/29 00:21:21;;;;;;;0.70;0.70;;;;;;;5.22;nan;101226.75;5053038;28;20212;-66
2024/01/29 00:23:48;;;;;;;1.23;1.23;;;;;;;5.25;nan;101239.50;5051368;28;20287;-66
2024/01/29 00:26:16;;;;;;;0.80;0.80;;;;;;;5.21;nan;101235.19;5051972;28;20270;-66
2024/01/29 00:28:42;;;;;;;0.90;0.90;;;;;;;5.21;nan;101227.56;5046097;28;20293;-66
2024/01/29 00:31:09;;;;;;;0.60;0.60;;;;;;;5.28;nan;101226.84;5050920;28;20197;-66
2024/01/29 00:33:36;;;;;;;0.50;0.50;;;;;;;5.35;nan;101240.56;5051274;28;20205;-66
2024/01/29 00:36:04;;;;;;;0.77;0.77;;;;;;;5.38;nan;101244.84;5051440;28;20196;-66
2024/01/29 00:38:30;;;;;;;0.63;0.63;;;;;;;5.39;nan;101246.56;5050567;28;20287;-66
2024/01/29 00:40:58;;;;;;;0.60;0.60;;;;;;;5.43;nan;101248.34;5052161;28;20208;-67
2024/01/29 00:43:26;;;;;;;0.60;0.60;;;;;;;5.39;nan;101242.34;5051796;28;20209;-66
2024/01/29 00:45:53;;;;;;;0.50;0.50;;;;;;;5.46;nan;101248.41;5052646;28;20327;-66
2024/01/29 00:48:22;;;;;;;2.50;1.07;;;;;;;5.52;nan;101245.97;5053081;28;20200;-66
2024/01/29 00:50:49;;;;;;;0.57;0.57;;;;;;;5.56;nan;101247.72;5051662;28;20220;-66
2024/01/29 00:53:16;;;;;;;1.03;1.03;;;;;;;5.48;nan;101246.75;5052991;28;20193;-66
2024/01/29 00:55:45;;;;;;;0.80;0.80;;;;;;;5.57;nan;101257.09;5052934;28;20250;-66
2024/01/29 00:58:12;;;;;;;0.60;0.60;;;;;;;5.58;nan;101258.81;5052340;28;20400;-66
2024/01/29 01:00:41;;;;;;;1.10;1.10;;;;;;;5.56;nan;101266.41;5052423;28;20200;-67
2024/01/29 01:03:08;;;;;;;0.60;0.60;;;;;;;5.52;nan;101263.78;5052363;28;20588;-66
2024/01/29 01:05:35;;;;;;;0.57;0.57;;;;;;;4.99;nan;101255.03;5048724;28;20342;-67
2024/01/29 01:08:02;;;;;;;0.90;0.90;;;;;;;4.98;nan;101254.16;5052250;28;20204;-66
2024/01/29 01:10:29;;;;;;;0.57;0.57;;;;;;;5.01;nan;101254.22;5052389;28;20204;-66
2024/01/29 01:12:55;;;;;;;0.70;0.70;;;;;;;5.06;nan;101251.81;5052462;28;20197;-66
2024/01/29 01:15:22;;;;;;;0.77;0.77;;;;;;;5.10;nan;101246.81;5050735;28;20756;-66
2024/01/29 01:17:50;;;;;;;0.63;0.63;;;;;;;5.15;nan;101241.81;5052360;28;20220;-66
2024/01/29 01:20:17;;;;;;;0.70;0.70;;;;;;;5.14;nan;101243.50;5051789;28;20216;-66
2024/01/29 01:22:43;;;;;;;0.70;0.70;;;;;;;5.16;nan;101239.31;5052304;28;20216;-66
2024/01/29 01:25:11;;;;;;;1.30;1.30;;;;;;;4.99;nan;101227.06;5052225;28;20262;-66
2024/01/29 01:27:37;;;;;;;0.80;0.80;;;;;;;5.04;nan;101238.22;5052147;28;20572;-66
2024/01/29 01:30:05;;;;;;;0.60;0.60;;;;;;;4.93;nan;101217.63;5051671;28;20208;-66
2024/01/29 01:32:32;;;;;;;1.63;1.53;;;;;;;5.09;nan;101236.59;5051881;28;20236;-66
2024/01/29 01:35:00;;;;;;;0.57;0.57;;;;;;;5.12;nan;101232.44;5050422;28;20262;-66
2024/01/29 01:37:27;;;;;;;0.73;0.73;;;;;;;5.08;nan;101225.59;5051417;28;20204;-67
2024/01/29 01:39:53;;;;;;;0.50;0.50;;;;;;;5.08;nan;101220.50;5051641;28;20262;-66
2024/01/29 01:42:21;;;;;;;0.83;0.83;;;;;;;5.16;nan;101226.63;5051449;28;20278;-66
2024/01/29 01:44:47;;;;;;;0.93;0.93;;;;;;;5.13;nan;101235.84;5051835;28;20284;-66
2024/01/29 01:47:15;;;;;;;0.80;0.80;;;;;;;5.12;nan;101231.59;5051637;28;20196;-66
2024/01/29 01:49:42;;;;;;;0.83;0.83;;;;;;;4.99;nan;101214.34;5051552;28;20201;-66
2024/01/29 01:52:10;;;;;;;0.80;0.80;;;;;;;4.97;nan;101219.44;5049505;28;20205;-66
2024/01/29 01:54:38;;;;;;;0.83;0.83;;;;;;;4.91;nan;101216.72;5050820;28;20205;-66
2024/01/29 01:57:05;;;;;;;0.57;0.57;;;;;;;4.85;nan;101220.84;5051420;28;20291;-74
2024/01/29 01:59:35;;;;;;;1.00;1.00;;;;;;;4.79;nan;101216.47;5048555;28;20283;-74
2024/01/29 02:02:02;;;;;;;0.67;0.67;;;;;;;4.76;nan;101216.41;5051125;28;20304;-74
2024/01/29 02:04:29;;;;;;;0.60;0.60;;;;;;;4.74;nan;101223.16;5051209;28;20201;-74
2024/01/29 02:06:56;;;;;;;0.70;0.70;;;;;;;4.69;nan;101222.16;5051070;28;20673;-74
2024/01/29 02:09:24;;;;;;;0.50;0.50;;;;;;;4.63;nan;101225.44;5051517;28;20638;-74
2024/01/29 02:11:51;;;;;;;0.83;0.83;;;;;;;4.44;nan;101197.03;5050160;28;20232;-73
2024/01/29 02:14:18;;;;;;;0.60;0.60;;;;;;;4.64;nan;101226.28;5048628;28;20665;-74
2024/01/29 02:16:44;;;;;;;0.70;0.70;;;;;;;4.64;nan;101224.63;5051181;28;20204;-74
2024/01/29 02:19:15;;;;;;;1.00;1.00;;;;;;;4.72;nan;101224.78;5050561;28;20200;-74
2024/01/29 02:21:42;;;;;;;0.67;0.67;;;;;;;4.72;nan;101224.78;5050644;28;20192;-74
2024/01/29 02:24:11;;;;;;;0.63;0.63;;;;;;;4.73;nan;101214.66;5050918;28;20278;-74
2024/01/29 02:26:37;;;;;;;0.67;0.67;;;;;;;4.74;nan;101215.53;5050160;28;20255;-74
2024/01/29 02:29:04;;;;;;;1.10;1.10;;;;;;;4.71;nan;101205.28;5050408;28;20223;-74
2024/01/29 02:31:31;;;;;;;0.60;0.60;;;;;;;4.76;nan;101216.41;5048080;28;20207;-74
2024/01/29 02:33:58;;;;;;;0.50;0.50;;;;;;;4.74;nan;101212.97;5041395;28;20189;-74
2024/01/29 02:36:24;;;;;;;0.70;0.70;;;;;;;4.59;nan;101187.22;5047493;28;20197;-74
2024/01/29 02:38:51;;;;;;;0.60;0.60;;;;;;;4.82;nan;101224.16;5048836;28;20263;-74
2024/01/29 02:41:19;;;;;;;0.57;0.57;;;;;;;4.81;nan;101224.13;5049438;28;20201;-74
2024/01/29 02:43:46;;;;;;;0.53;0.53;;;;;;;4.66;nan;101214.47;5048572;28;20216;-74
2024/01/29 02:46:12;;;;;;;0.60;0.60;;;;;;;4.71;nan;101220.53;5049583;28;20204;-74
2024/01/29 02:48:39;;;;;;;0.67;0.67;;;;;;;4.74;nan;101228.22;5049773;28;20200;-74
2024/01/29 02:51:07;;;;;;;0.63;0.63;;;;;;;4.78;nan;101240.19;5050539;28;20742;-73
2024/01/29 02:53:34;;;;;;;0.60;0.60;;;;;;;4.73;nan;101221.41;5050543;28;20196;-74
2024/01/29 02:56:01;;;;;;;0.80;0.80;;;;;;;4.80;nan;101233.44;5050712;28;20196;-74
2024/01/29 02:58:31;;;;;;;0.70;0.70;;;;;;;4.78;nan;101240.19;5050383;28;20251;-74
2024/01/29 03:00:58;;;;;;;0.50;0.50;;;;;;;4.81;nan;101240.25;5050525;28;20196;-74
2024/01/29 03:03:25;;;;;;;1.10;1.10;;;;;;;4.82;nan;101244.47;5050244;28;20671;-74
2024/01/29 03:05:51;;;;;;;0.80;0.80;;;;;;;4.78;nan;101240.19;5050674;28;20208;-74
2024/01/29 03:08:18;;;;;;;0.60;0.60;;;;;;;4.72;nan;101234.94;5049236;28;20242;-74
2024/01/29 03:10:45;;;;;;;0.70;0.70;;;;;;;4.68;nan;101236.56;5050148;28;20238;-74
2024/01/29 03:13:12;;;;;;;0.60;0.60;;;;;;;4.66;nan;101235.66;5047974;28;20656;-74
2024/01/29 03:15:40;;;;;;;0.83;0.83;;;;;;;4.68;nan;101238.25;5049828;28;20289;-74
2024/01/29 03:18:06;;;;;;;1.53;1.40;;;;;;;4.68;nan;101238.25;5050379;28;20290;-74
2024/01/29 03:20:33;;;;;;;1.23;1.13;;;;;;;4.65;nan;101240.72;5049615;28;20196;-74
2024/01/29 03:23:00;;;;;;;0.70;0.70;;;;;;;4.66;nan;101245.81;5050567;28;20212;-74
2024/01/29 03:25:26;;;;;;;0.80;0.80;;;;;;;4.68;nan;101243.34;5050070;28;20196;-73
2024/01/29 03:27:54;;;;;;;1.23;1.10;;;;;;;4.64;nan;101249.16;5050406;28;20669;-74
2024/01/29 03:30:20;;;;;;;2.10;1.20;;;;;;;4.65;nan;101248.34;5049294;28;20259;-74
2024/01/29 03:32:49;;;;;;;0.57;0.57;;;;;;;4.63;nan;101250.84;5050146;28;20287;-74
2024/01/29 03:35:16;;;;;;;0.90;0.90;;;;;;;4.62;nan;101249.09;5050158;28;20199;-74
2024/01/29 03:37:45;;;;;;;1.17;1.17;;;;;;;4.56;nan;101248.09;5050040;28;20196;-74
2024/01/29 03:40:13;;;;;;;0.90;0.90;;;;;;;4.55;nan;101243.88;5050334;28;20235;-74
2024/01/29 03:42:40;;;;;;;1.07;1.07;;;;;;;4.48;nan;101236.91;5049875;28;20212;-73
2024/01/29 03:45:08;;;;;;;2.00;0.97;;;;;;;4.54;nan;101257.38;5050253;28;20664;-74
2024/01/29 03:47:34;;;;;;;1.17;1.17;;;;;;;4.51;nan;101265.78;5050305;28;20714;-74
2024/01/29 03:50:05;;;;;;;0.60;0.60;;;;;;;4.52;nan;101262.44;5050374;28;20627;-74
2024/01/29 03:52:32;;;;;;;0.70;0.70;;;;;;;4.49;nan;101259.81;5047254;28;20225;-74
2024/01/29 03:54:58;;;;;;;0.63;0.63;;;;;;;4.49;nan;101261.50;5050019;28;20201;-74
2024/01/29 03:57:25;;;;;;;0.83;0.83;;;;;;;4.41;nan;101255.38;5048332;28;20599;-74
2024/01/29 03:59:54;;;;;;;0.60;0.60;;;;;;;4.47;nan;101273.28;5050025;28;20209;-74
2024/01/29 04:02:20;;;;;;;0.77;0.77;;;;;;;4.43;nan;101272.34;5049810;28;20201;-74
2024/01/29 04:04:48;;;;;;;0.70;0.70;;;;;;;4.38;nan;101268.84;5049883;28;20712;-73
2024/01/29 04:07:16;;;;;;;0.60;0.60;;;;;;;4.34;nan;101267.06;5049215;28;20234;-74
2024/01/29 04:09:43;;;;;;;0.93;0.63;;;;;;;4.34;nan;101266.19;5049950;28;20566;-74
2024/01/29 04:12:10;;;;;;;0.50;0.50;;;;;;;4.32;nan;101267.84;5049849;28;20204;-74
2024/01/29 04:14:37;;;;;;;0.50;0.50;;;;;;;4.31;nan;101271.19;5048935;28;20284;-74
2024/01/29 04:17:06;;;;;;;0.60;0.60;;;;;;;4.31;nan;101278.81;5049778;28;20270;-74
2024/01/29 04:19:33;;;;;;;0.60;0.60;;;;;;;4.24;nan;101271.03;5052203;28;20200;-73
2024/01/29 04:21:59;;;;;;;0.73;0.73;;;;;;;4.20;nan;101271.78;5052916;28;20197;-73
2024/01/29 04:24:28;;;;;;;0.70;0.70;;;;;;;4.28;nan;101281.28;5053200;28;20213;-74
2024/01/29 04:26:55;;;;;;;0.57;0.57;;;;;;;4.26;nan;101288.00;5053474;28;20627;-74
2024/01/29 04:29:21;;;;;;;0.60;0.60;;;;;;;4.07;nan;101290.03;5052666;28;20201;-73
2024/01/29 04:31:48;;;;;;;1.10;1.10;;;;;;;3.94;nan;101290.53;5052596;28;20200;-74
2024/01/29 04:34:15;;;;;;;0.60;0.60;;;;;;;3.90;nan;101296.38;5052398;28;20614;-73
2024/01/29 04:36:42;;;;;;;0.67;0.67;;;;;;;3.82;nan;101299.50;5052700;28;20204;-73
2024/01/29 04:39:08;;;;;;;0.97;0.97;;;;;;;3.76;nan;101300.22;5052903;28;20193;-73
2024/01/29 04:41:36;;;;;;;0.73;0.73;;;;;;;3.70;nan;101305.13;5051634;28;20209;-74
2024/01/29 04:44:03;;;;;;;0.70;0.70;;;;;;;3.72;nan;101308.53;5051729;28;20208;-74
2024/01/29 04:46:30;;;;;;;0.90;0.90;;;;;;;3.60;nan;101287.91;5052155;28;20577;-74
2024/01/29 04:48:57;;;;;;;1.03;1.03;;;;;;;3.61;nan;101304.88;5051339;28;20193;-74
2024/01/29 04:51:24;;;;;;;0.60;0.60;;;;;;;3.63;nan;101315.91;5050785;28;20274;-73
2024/01/29 04:53:51;;;;;;;1.10;1.10;;;;;;;3.63;nan;101309.16;5050579;28;20197;-74
2024/01/29 04:56:17;;;;;;;0.70;0.70;;;;;;;3.65;nan;101312.56;5050514;28;20196;-73
2024/01/29 04:58:45;;;;;;;0.60;0.60;;;;;;;3.58;nan;101294.63;5052581;28;20219;-73
2024/01/29 05:01:12;;;;;;;0.70;0.70;;;;;;;3.59;nan;101317.47;5051849;28;20200;-74
2024/01/29 05:03:39;;;;;;;0.60;0.60;;;;;;;3.61;nan;101315.88;5052507;28;20217;-74
2024/01/29 05:06:06;;;;;;;1.00;1.00;;;;;;;3.62;nan;101319.25;5050278;28;20208;-73
2024/01/29 05:08:33;;;;;;;1.00;1.00;;;;;;;3.65;nan;101314.28;5050916;28;20256;-73
2024/01/29 05:10:59;;;;;;;1.43;1.43;;;;;;;3.68;nan;101321.97;5052119;28;20208;-73
2024/01/29 05:13:26;;;;;;;0.80;0.80;;;;;;;3.66;nan;101319.38;5052324;28;20232;-73
2024/01/29 05:15:54;;;;;;;1.17;1.17;;;;;;;3.65;nan;101319.34;5051193;28;20668;-73
2024/01/29 05:18:21;;;;;;;0.80;0.80;;;;;;;3.69;nan;101323.66;5050444;28;20801;-74
2024/01/29 05:20:48;;;;;;;1.77;1.77;;;;;;;3.62;nan;101312.50;5048102;28;20250;-73
2024/01/29 05:23:15;;;;;;;2.60;2.33;;;;;;;3.69;nan;101328.75;5051828;28;20274;-73
2024/01/29 05:25:41;;;;;;;0.90;0.90;;;;;;;3.32;nan;101331.03;5051735;28;20196;-73
2024/01/29 05:28:08;;;;;;;1.33;1.33;;;;;;;3.10;nan;101339.69;5052039;28;20208;-74
2024/01/29 05:30:35;;;;;;;0.60;0.60;;;;;;;2.93;nan;101336.63;5051268;28;20200;-73
2024/01/29 05:33:03;;;;;;;0.60;0.60;;;;;;;2.88;nan;101335.59;5051966;28;20197;-73
2024/01/29 05:35:30;;;;;;;1.20;1.20;;;;;;;2.76;nan;101342.81;5050939;28;20252;-74
2024/01/29 05:37:56;;;;;;;1.23;1.23;;;;;;;2.56;nan;101341.28;5049058;28;20207;-73
2024/01/29 05:40:23;;;;;;;0.70;0.70;;;;;;;2.37;nan;101351.63;5051303;28;20231;-73
2024/01/29 05:42:53;;;;;;;0.60;0.60;;;;;;;2.20;nan;101342.63;5051354;28;20200;-72
2024/01/29 05:45:20;;;;;;;0.93;0.93;;;;;;;2.14;nan;101355.88;5051747;28;20208;-73
2024/01/29 05:47:47;;;;;;;0.70;0.70;;;;;;;2.13;nan;101355.03;5051491;28;20205;-72
2024/01/29 05:50:15;;;;;;;0.80;0.80;;;;;;;2.19;nan;101356.06;5049884;28;20208;-72
2024/01/29 05:52:42;;;;;;;0.63;0.63;;;;;;;2.13;nan;101349.97;5051215;28;20266;-73
2024/01/29 05:55:09;;;;;;;0.83;0.83;;;;;;;2.11;nan;101358.31;5048512;28;20189;-73
2024/01/29 05:57:36;;;;;;;0.93;0.93;;;;;;;2.06;nan;101347.19;5051420;28;20235;-73
2024/01/29 06:00:06;;;;;;;0.70;0.70;;;;;;;2.10;nan;101352.38;5051638;28;20238;-72
2024/01/29 06:02:33;;;;;;;1.23;1.23;;;;;;;2.06;nan;101359.84;5051300;28;20203;-72
2024/01/29 06:05:00;;;;;;;0.73;0.73;;;;;;;2.18;nan;101356.84;5050903;28;20290;-72
2024/01/29 06:07:28;;;;;;;1.03;1.03;;;;;;;2.27;nan;101359.69;5049556;28;20200;-72
2024/01/29 06:09:54;;;;;;;1.30;1.30;;;;;;;2.28;nan;101363.97;5050408;28;20200;-70
2024/01/29 06:12:21;;;;;;;1.10;1.10;;;;;;;2.36;nan;101365.09;5052271;28;20208;-71
2024/01/29 06:14:48;;;;;;;1.17;1.17;;;;;;;2.47;nan;101363.78;5052486;28;20258;-71
2024/01/29 06:17:14;;;;;;;1.17;1.17;;;;;;;2.57;nan;101370.88;5052229;28;20654;-70
2024/01/29 06:19:42;;;;;;;0.70;0.70;;;;;;;2.66;nan;101371.19;5052289;28;20278;-70
2024/01/29 06:22:09;;;;;;;1.07;1.07;;;;;;;2.68;nan;101364.50;5052399;28;20213;-70
2024/01/29 06:24:37;;;;;;;0.80;0.80;;;;;;;2.71;nan;101367.13;5052048;28;20282;-70
2024/01/29 06:27:03;;;;;;;1.60;1.50;;;;;;;2.75;nan;101370.63;5051951;28;20204;-68
2024/01/29 06:29:30;;;;;;;1.17;1.17;;;;;;;2.80;nan;101369.97;5048097;28;21202;-68
2024/01/29 06:31:57;;;;;;;1.30;1.30;;;;;;;2.76;nan;101378.25;5048675;28;20267;-70
2024/01/29 06:34:25;;;;;;;1.53;1.53;;;;;;;2.67;nan;101362.78;5051233;28;20742;-69
2024/01/29 06:36:53;;;;;;;0.90;0.90;;;;;;;2.72;nan;101376.44;5052016;28;20197;-69
2024/01/29 06:39:20;;;;;;;0.83;0.83;;;;;;;2.71;nan;101382.34;5050887;28;20199;-72
2024/01/29 06:41:48;;;;;;;0.60;0.60;;;;;;;2.72;nan;101386.56;5051122;28;20197;-70
2024/01/29 06:44:15;;;;;;;0.60;0.60;;;;;;;2.71;nan;101382.34;5051728;28;20216;-70
2024/01/29 06:46:41;;;;;;;1.07;1.07;;;;;;;2.62;nan;101389.59;5051514;28;20734;-69
2024/01/29 06:49:08;;;;;;;1.03;1.03;;;;;;;2.53;nan;101386.75;5047297;28;20209;-69
2024/01/29 06:51:35;;;;;;;0.70;0.70;;;;;;;2.55;nan;101385.16;5050783;28;20201;-69
2024/01/29 06:54:03;;;;;;;1.07;1.07;;;;;;;2.57;nan;101393.66;5048622;28;20200;-71
2024/01/29 06:56:30;;;;;;;1.17;1.17;;;;;;;2.41;nan;101381.28;5050088;28;20767;-70
2024/01/29 06:58:58;;;;;;;0.90;0.90;;;;;;;2.62;nan;101403.13;5048539;28;20204;-71
2024/01/29 07:01:26;;;;;;;1.13;1.13;;;;;;;2.58;nan;101388.66;5049914;28;20205;-72
2024/01/29 07:03:53;;;;;;;1.23;1.23;;;;;;;2.69;nan;101409.25;5049227;28;20594;-71
2024/01/29 07:06:19;;;;;;;1.23;1.23;;;;;;;2.77;nan;101395.19;5049872;28;20254;-71
2024/01/29 07:08:46;;;;;;;0.80;0.80;;;;;;;2.78;nan;101407.03;5049768;28;20739;-70
2024/01/29 07:11:13;;;;;;;1.00;1.00;;;;;;;2.77;nan;101402.78;5047873;28;20201;-72
2024/01/29 07:13:40;;;;;;;0.73;0.73;;;;;;;2.72;nan;101408.50;5048381;28;20250;-66
2024/01/29 07:16:08;;;;;;;1.20;1.20;;;;;;;2.75;nan;101399.31;5047962;28;20622;-65
2024/01/29 07:18:36;;;;;;;1.00;1.00;;;;;;;2.85;nan;101393.75;5047231;28;20228;-65
2024/01/29 07:21:03;;;;;;;2.07;2.07;;;;;;;2.86;nan;101405.63;5048345;28;20203;-65
2024/01/29 07:23:29;;;;;;;1.00;1.00;;;;;;;2.93;nan;101406.69;5048232;28;20204;-65
2024/01/29 07:25:57;;;;;;;4.03;1.47;;;;;;;2.99;nan;101411.94;5049192;28;20204;-69
2024/01/29 07:28:24;;;;;;;0.90;0.90;;;;;;;2.99;nan;101402.69;5051144;28;20228;-70
2024/01/29 07:30:51;;;;;;;0.80;0.80;;;;;;;2.99;nan;101387.47;5051091;28;20196;-70
2024/01/29 07:33:19;;;;;;;0.90;0.90;;;;;;;3.10;nan;101411.47;5051227;28;20212;-69
2024/01/29 07:35:46;;;;;;;1.20;1.20;;;;;;;3.07;nan;101416.44;5050983;28;20200;-70
2024/01/29 07:38:12;;;;;;;0.80;0.80;;;;;;;3.13;nan;101415.78;5050446;28;20208;-71
2024/01/29 07:40:39;;;;;;;0.93;0.93;;;;;;;3.18;nan;101412.59;5050371;28;20228;-72
2024/01/29 07:43:06;;;;;;;1.07;1.07;;;;;;;3.27;nan;101423.81;5048618;28;20196;-72
2024/01/29 07:45:32;;;;;;;1.87;1.87;;;;;;;3.26;nan;101401.84;5049980;28;20278;-70
2024/01/29 07:48:00;;;;;;;1.10;1.10;;;;;;;3.38;nan;101423.34;5049813;28;20208;-71
2024/01/29 07:50:30;;;;;;;0.83;0.83;;;;;;;3.37;nan;101423.28;5050221;28;20304;-71
2024/01/29 07:52:56;;;;;;;1.37;1.37;;;;;;;3.46;nan;101426.97;5047463;28;20201;-71
2024/01/29 07:55:23;;;;;;;1.17;1.17;;;;;;;3.47;nan;101417.69;5053610;28;20197;-71
2024/01/29 07:57:52;;;;;;;0.90;0.90;;;;;;;3.66;nan;101425.03;5053718;28;20320;-71
2024/01/29 08:00:20;;;;;;;0.73;0.73;;;;;;;3.76;nan;101416.88;5053674;28;20294;-70
2024/01/29 08:02:46;;;;;;;0.70;0.70;;;;;;;3.87;nan;101429.91;5051918;28;20196;-71
2024/01/29 08:05:13;;;;;;;0.90;0.90;;;;;;;3.99;nan;101428.56;5052922;28;20216;-71
2024/01/29 08:07:41;;;;;;;1.53;1.43;;;;;;;4.13;nan;101428.97;5054190;28;20591;-71
2024/01/29 08:10:08;;;;;;;2.13;0.93;;;;;;;4.16;nan;101442.63;5053688;28;20691;-71
2024/01/29 08:12:35;;;;;;;0.70;0.70;;;;;;;4.23;nan;101436.88;5050807;28;20216;-71
2024/01/29 08:15:02;;;;;;;1.33;0.97;;;;;;;4.41;nan;101451.75;5052888;28;20212;-71
2024/01/29 08:17:29;;;;;;;0.80;0.80;;;;;;;4.55;nan;101445.38;5053828;28;20741;-70
2024/01/29 08:19:55;;;;;;;1.33;1.23;;;;;;;4.70;nan;101445.78;5053941;28;20197;-70
2024/01/29 08:22:21;;;;;;;0.80;0.80;;;;;;;4.83;nan;101451.16;5054409;28;20212;-70
2024/01/29 08:24:49;;;;;;;0.67;0.67;;;;;;;4.96;nan;101454.06;5053739;28;20274;-71
2024/01/29 08:27:16;;;;;;;0.73;0.73;;;;;;;4.96;nan;101454.06;5053857;28;20254;-71
2024/01/29 08:29:42;;;;;;;0.60;0.60;;;;;;;5.01;nan;101475.38;5053496;28;20212;-70
2024/01/29 08:32:09;;;;;;;0.80;0.80;;;;;;;5.06;nan;101478.03;5049604;28;20209;-69
2024/01/29 08:34:36;;;;;;;0.90;0.90;;;;;;;4.96;nan;101474.41;5052544;28;20668;-69
2024/01/29 08:37:02;;;;;;;1.20;1.20;;;;;;;4.87;nan;101479.25;5047509;28;20630;-69
2024/01/29 08:39:30;;;;;;;1.30;1.30;;;;;;;4.62;nan;101446.41;5050862;28;20209;-69
2024/01/29 08:42:00;;;;;;;0.90;0.90;;;;;;;4.86;nan;101474.97;5051246;28;20204;-69
2024/01/29 08:44:27;;;;;;;1.00;1.00;;;;;;;4.88;nan;101482.66;5052662;28;20225;-73
2024/01/29 08:46:53;;;;;;;0.73;0.73;;;;;;;4.94;nan;101481.16;5047791;28;20267;-73
2024/01/29 08:49:20;;;;;;;1.50;1.40;;;;;;;5.04;nan;101484.78;5050495;28;20266;-71
2024/01/29 08:51:47;;;;;;;1.00;1.00;;;;;;;5.16;nan;101487.63;5034091;28;20205;-70
2024/01/29 08:54:13;;;;;;;0.60;0.60;;;;;;;5.22;nan;101491.19;5052723;28;20204;-70
2024/01/29 08:56:41;;;;;;;0.70;0.70;;;;;;;5.34;nan;101482.97;5051669;28;20205;-72
2024/01/29 08:59:10;;;;;;;1.17;1.13;;;;;;;5.53;nan;101489.34;5050691;28;20197;-74
2024/01/29 09:01:36;;;;;;;1.43;1.40;;;;;;;5.68;nan;101489.72;5052426;28;20204;-76
2024/01/29 09:04:03;;;;;;;0.77;0.77;;;;;;;5.79;nan;101488.25;5052068;28;20201;-70
2024/01/29 09:06:30;;;;;;;1.03;1.03;;;;;;;5.85;nan;101488.41;5052070;28;20201;-68
2024/01/29 09:08:56;;;;;;;0.80;0.80;;;;;;;5.87;nan;101491.91;5051683;28;20734;-71
2024/01/29 09:11:23;;;;;;;4.53;1.60;;;;;;;5.94;nan;101488.66;5053697;28;20642;-69
2024/01/29 09:13:50;;;;;;;1.43;1.33;;;;;;;5.96;nan;101469.19;5054544;28;20208;-70
2024/01/29 09:16:18;;;;;;;1.93;1.83;;;;;;;6.10;nan;101484.75;5052736;28;20247;-69
2024/01/29 09:18:45;;;;;;;0.97;0.97;;;;;;;6.27;nan;101485.94;5052514;28;20220;-69
2024/01/29 09:21:11;;;;;;;0.90;0.90;;;;;;;6.32;nan;101466.53;5051458;28;20200;-70
2024/01/29 09:23:38;;;;;;;1.20;1.20;;;;;;;6.48;nan;101482.97;5050300;28;21755;-71
2024/01/29 09:26:05;;;;;;;1.10;1.10;;;;;;;6.57;nan;101471.28;5051065;28;20275;-67
2024/01/29 09:28:32;;;;;;;1.70;0.90;;;;;;;6.69;nan;101457.88;5052015;28;20209;-69
2024/01/29 09:30:58;;;;;;;0.80;0.80;;;;;;;6.84;nan;101468.38;5052464;28;20197;-70
2024/01/29 09:33:27;;;;;;;1.10;1.10;;;;;;;6.91;nan;101460.03;5048701;28;20208;-69
2024/01/29 09:35:54;;;;;;;1.10;1.10;;;;;;;7.12;nan;101465.47;5052135;28;20246;-72
2024/01/29 09:38:21;;;;;;;1.10;1.10;;;;;;;7.09;nan;101465.41;5051567;28;20208;-71
2024/01/29 09:40:47;;;;;;;0.93;0.93;;;;;;;7.16;nan;101462.16;5052101;28;20258;-70
2024/01/29 09:43:17;;;;;;;0.97;0.97;;;;;;;7.32;nan;101464.09;5052140;28;20238;-71
2024/01/29 09:45:44;;;;;;;0.60;0.60;;;;;;;7.45;nan;101464.28;5052422;28;20684;-70
2024/01/29 09:48:15;;;;;;;1.17;1.17;;;;;;;7.51;nan;101460.16;5052357;28;20201;-68
2024/01/29 09:50:44;;;;;;;0.60;0.60;;;;;;;7.16;nan;101445.97;5051666;28;20193;-67
2024/01/29 09:53:14;;;;;;;0.60;0.60;;;;;;;7.39;nan;101459.97;5050424;28;20200;-68
2024/01/29 09:55:40;;;;;;;0.70;0.70;;;;;;;7.39;nan;101450.63;5051431;28;20201;-68
2024/01/29 09:58:07;;;;;;;0.80;0.80;;;;;;;7.56;nan;101457.66;5051910;28;20750;-70
2024/01/29 10:00:34;;;;;;;2.97;1.67;;;;;;;7.54;nan;101444.00;5051937;28;20254;-68
2024/01/29 10:03:03;;;;;;;1.83;1.73;;;;;;;7.61;nan;101435.63;5051744;28;20557;-68
2024/01/29 10:05:30;;;;;;;1.67;1.57;;;;;;;7.71;nan;101447.69;5051755;28;20220;-73
2024/01/29 10:07:59;;;;;;;0.80;0.80;;;;;;;7.52;nan;101443.13;5049834;28;20220;-70
2024/01/29 10:10:26;;;;;;;0.70;0.70;;;;;;;7.64;nan;101436.50;5050388;28;20252;-66
2024/01/29 10:13:03;;;;;;;1.17;1.17;;;;;;;7.63;nan;101444.13;5051693;28;20266;-67
2024/01/29 10:15:31;;;;;;;1.07;1.07;;;;;;;7.48;nan;101415.84;5049403;28;20197;-71
2024/01/29 10:17:58;;;;;;;0.80;0.80;;;;;;;7.65;nan;101437.38;5047161;28;20224;-70
2024/01/29 10:20:25;;;;;;;0.60;0.60;;;;;;;7.71;nan;101438.31;5050937;28;20682;-70
2024/01/29 10:23:00;;;;;;;0.90;0.90;;;;;;;7.73;nan;101438.31;5050297;28;20210;-69
2024/01/29 10:25:27;;;;;;;1.03;0.70;;;;;;;7.78;nan;101439.28;5050864;28;20565;-71
2024/01/29 10:27:54;;;;;;;0.80;0.80;;;;;;;7.75;nan;101418.81;5050464;28;20228;-68
2024/01/29 10:30:22;;;;;;;0.97;0.97;;;;;;;7.93;nan;101439.47;5050798;28;20631;-69
2024/01/29 10:32:48;;;;;;;0.80;0.80;;;;;;;7.92;nan;101432.63;5050530;28;20254;-68
2024/01/29 10:35:15;;;;;;;0.70;0.70;;;;;;;7.83;nan;101428.28;5050652;28;20250;-69
2024/01/29 10:37:47;;;;;;;0.60;0.60;;;;;;;7.76;nan;101425.59;5047001;28;20200;-68
2024/01/29 10:40:17;;;;;;;12.60;5.33;;;;;;;7.76;nan;101425.59;5051390;28;20200;-67
2024/01/29 10:42:49;;;;;;;0.70;0.70;;;;;;;7.62;nan;101407.56;5050610;28;20250;-70
2024/01/29 10:45:20;;;;;;;1.07;0.90;;;;;;;7.78;nan;101413.72;5049942;28;20217;-68
2024/01/29 10:47:48;;;;;;;1.90;1.70;;;;;;;7.83;nan;101423.16;5050010;28;20204;-70
2024/01/29 10:50:16;;;;;;;0.93;0.93;;;;;;;7.60;nan;101385.38;5048299;28;20192;-68
2024/01/29 10:52:44;;;;;;;0.70;0.70;;;;;;;7.94;nan;101410.53;5049304;28;20203;-68
2024/01/29 10:55:12;;;;;;;1.00;1.00;;;;;;;8.03;nan;101408.09;5048629;28;20204;-67
2024/01/29 10:57:45;;;;;;;0.70;0.70;;;;;;;8.19;nan;101409.13;5045690;28;20204;-68
2024/01/29 11:00:13;;;;;;;0.87;0.80;;;;;;;8.20;nan;101406.59;5049737;28;20207;-68
2024/01/29 11:02:41;;;;;;;0.50;0.50;;;;;;;8.19;nan;101407.44;5045596;28;20633;-68
2024/01/29 11:05:11;;;;;;;0.50;0.50;;;;;;;8.31;nan;101394.81;5048115;28;20220;-68
2024/01/29 11:07:41;;;;;;;0.60;0.60;;;;;;;8.38;nan;101393.19;5047180;28;20204;-68
2024/01/29 11:10:12;;;;;;;0.77;0.77;;;;;;;8.27;nan;101400.69;5048493;28;20238;-69
2024/01/29 11:12:42;;;;;;;0.73;0.73;;;;;;;8.11;nan;101393.69;5048054;28;20677;-68
2024/01/29 11:15:10;;;;;;;0.60;0.60;;;;;;;8.10;nan;101386.91;5046188;28;20201;-68
2024/01/29 11:17:37;;;;;;;0.60;0.60;;;;;;;8.18;nan;101389.50;5048584;28;20224;-68
2024/01/29 11:20:09;;;;;;;0.60;0.60;;;;;;;8.22;nan;101386.16;5046663;28;20205;-68
2024/01/29 11:22:37;;;;;;;0.60;0.60;;;;;;;8.30;nan;101359.88;5049002;28;20224;-68
2024/01/29 11:25:14;;;;;;;0.53;0.53;;;;;;;8.32;nan;101353.09;5049188;28;20274;-68
2024/01/29 11:27:43;;;;;;;0.70;0.70;;;;;;;8.35;nan;101357.38;5048802;28;20246;-69
2024/01/29 11:30:14;;;;;;;0.60;0.60;;;;;;;8.49;nan;101365.19;5053011;28;20446;-69
2024/01/29 11:32:41;;;;;;;0.70;0.70;;;;;;;8.59;nan;101364.44;5054584;28;20656;-68
2024/01/29 11:35:14;;;;;;;0.50;0.50;;;;;;;8.76;nan;101375.66;5054395;28;20200;-69
2024/01/29 11:37:41;;;;;;;0.70;0.70;;;;;;;8.69;nan;101358.56;5054347;28;20258;-70
2024/01/29 11:40:38;;;;;;;0.60;0.60;;;;;;;8.88;nan;101375.78;5054123;28;20197;-70
2024/01/29 11:43:12;;;;;;;0.70;0.70;;;;;;;8.86;nan;101357.00;5053080;28;20279;-70
2024/01/29 11:45:39;;;;;;;1.33;0.70;;;;;;;8.59;nan;101341.44;5049984;28;20475;-70
2024/01/29 11:48:10;;;;;;;0.60;0.60;;;;;;;8.64;nan;101353.41;5056900;28;20200;-71
2024/01/29 11:50:37;;;;;;;0.63;0.63;;;;;;;8.66;nan;101358.53;5055729;28;20586;-71
2024/01/29 11:53:04;;;;;;;1.17;1.07;;;;;;;8.36;nan;101352.31;5059556;28;20204;-71